Time;durP1;ratioP1;P1;durP2;ratioP2;P2;SDS_P1;SDS_P2;PMS_P1;PMS_P2;Temp;Humidity;BMP_temperature;BMP_pressure;BME280_temperature;BME280_humidity;BME280_pressure;Samples;Min_cycle;Max_cycle;Signal;HPM_P1;HPM_P2
2024/01/19 00:00:04;;;;;;;11.65;7.88;;;3.10;72.00;;;-2.35;100.00;94880.91;4960753;28;20058;-55
2024/01/19 00:02:30;;;;;;;14.15;7.85;;;3.00;72.00;;;-2.31;100.00;94885.72;4966385;28;20030;-52
2024/01/19 00:04:55;;;;;;;17.27;7.28;;;3.00;72.00;;;-2.36;100.00;94886.31;4958741;28;20478;-53
2024/01/19 00:07:21;;;;;;;13.75;7.45;;;3.00;72.00;;;-2.41;100.00;94886.94;4964413;28;20018;-51
2024/01/19 00:09:47;;;;;;;16.77;7.93;;;3.00;72.00;;;-2.43;100.00;94896.75;4958525;28;20416;-53
2024/01/19 00:12:13;;;;;;;15.35;7.22;;;3.00;72.00;;;-2.46;100.00;94891.94;4962811;28;20101;-50
2024/01/19 00:14:39;;;;;;;15.43;8.02;;;3.00;72.00;;;-2.43;100.00;94901.97;4964965;28;20057;-51
2024/01/19 00:17:05;;;;;;;11.82;7.00;;;2.90;72.00;;;-2.50;100.00;94897.75;4955225;28;20392;-52
2024/01/19 00:19:33;;;;;;;11.93;6.93;;;2.90;71.90;;;-2.51;100.00;94907.38;4933258;28;20100;-53
2024/01/19 00:21:59;;;;;;;16.05;7.30;;;2.90;72.00;;;-2.54;100.00;94917.41;4963231;28;20026;-53
2024/01/19 00:24:25;;;;;;;11.95;6.38;;;2.90;72.00;;;-2.51;100.00;94919.59;4962612;28;20068;-52
2024/01/19 00:26:51;;;;;;;12.57;7.68;;;2.90;72.00;;;-2.58;100.00;94925.63;4954604;28;20026;-55
2024/01/19 00:29:17;;;;;;;12.15;7.30;;;2.80;72.00;;;-2.53;100.00;94927.66;4963671;28;20034;-51
2024/01/19 00:31:46;;;;;;;13.32;7.18;;;2.80;72.00;;;-2.60;100.00;94927.66;4964092;28;20022;-51
2024/01/19 00:34:13;;;;;;;13.48;7.97;;;2.80;72.00;;;-2.65;100.00;94937.06;4965879;28;20550;-52
2024/01/19 00:36:40;;;;;;;14.85;7.90;;;2.80;72.00;;;-2.64;100.00;94943.88;4964927;28;20385;-52
2024/01/19 00:39:06;;;;;;;14.30;7.68;;;2.80;71.90;;;-2.65;100.00;94948.28;4957405;28;20041;-55
2024/01/19 00:41:32;;;;;;;17.35;8.27;;;2.80;72.00;;;-2.63;100.00;94953.31;4959387;28;20022;-52
2024/01/19 00:43:57;;;;;;;21.02;8.52;;;2.80;72.00;;;-2.63;100.00;94959.31;4963243;28;20404;-54
2024/01/19 00:46:24;;;;;;;16.05;9.45;;;2.80;72.00;;;-2.61;100.00;94966.94;4958414;28;20069;-52
2024/01/19 00:48:51;;;;;;;17.67;9.27;;;2.80;72.00;;;-2.65;100.00;94969.13;4965667;28;20128;-51
2024/01/19 00:51:17;;;;;;;16.70;8.18;;;2.70;72.00;;;-2.62;100.00;94973.16;4960895;28;20489;-54
2024/01/19 00:53:44;;;;;;;19.70;9.25;;;2.70;72.00;;;-2.60;100.00;94976.34;4964958;28;20037;-55
2024/01/19 00:56:10;;;;;;;16.10;8.50;;;2.70;72.00;;;-2.61;100.00;94978.16;4968468;28;20474;-54
2024/01/19 00:58:37;;;;;;;16.05;8.20;;;2.70;72.00;;;-2.57;100.00;94981.19;4956859;28;20037;-56
2024/01/19 01:01:04;;;;;;;17.92;9.45;;;2.70;72.00;;;-2.58;100.00;94993.44;4967608;28;20029;-51
2024/01/19 01:03:30;;;;;;;17.73;8.93;;;2.70;72.10;;;-2.56;100.00;94998.47;4960440;28;20457;-52
2024/01/19 01:06:03;;;;;;;17.23;8.52;;;2.70;72.00;;;-2.54;100.00;94998.25;4963164;28;20026;-58
2024/01/19 01:08:30;;;;;;;15.27;8.75;;;2.80;72.10;;;-2.50;100.00;95007.31;4961904;28;20034;-54
2024/01/19 01:10:56;;;;;;;13.70;8.10;;;2.80;72.00;;;-2.52;100.00;95012.69;4966602;28;20041;-55
2024/01/19 01:13:22;;;;;;;16.27;9.32;;;2.80;72.10;;;-2.52;100.00;95022.34;4966665;28;20033;-53
2024/01/19 01:15:49;;;;;;;14.38;8.80;;;2.80;72.10;;;-2.52;100.00;95020.53;4964208;28;20109;-52
2024/01/19 01:18:16;;;;;;;15.27;8.40;;;2.80;72.10;;;-2.49;100.00;95021.94;4966224;28;20034;-53
2024/01/19 01:20:43;;;;;;;15.18;9.50;;;2.80;72.00;;;-2.48;100.00;95031.38;4963788;28;20023;-51
2024/01/19 01:23:09;;;;;;;17.40;9.65;;;2.80;72.00;;;-2.47;100.00;95035.59;4963374;28;20026;-52
2024/01/19 01:25:35;;;;;;;18.55;8.73;;;2.80;71.90;;;-2.47;100.00;95043.44;4969199;28;20555;-50
2024/01/19 01:28:02;;;;;;;17.75;8.70;;;2.80;72.00;;;-2.51;100.00;95044.78;4964575;28;20038;-51
2024/01/19 01:30:28;;;;;;;17.63;9.00;;;2.90;71.90;;;-2.53;100.00;95049.44;4963873;28;20400;-54
2024/01/19 01:32:54;;;;;;;16.67;9.05;;;2.80;71.80;;;-2.54;100.00;95047.78;4963702;28;20043;-56
2024/01/19 01:35:20;;;;;;;15.98;8.02;;;2.80;71.80;;;-2.53;100.00;95063.25;4965193;28;20026;-54
2024/01/19 01:37:46;;;;;;;14.75;8.13;;;2.80;71.80;;;-2.58;100.00;95068.25;4961422;28;20092;-52
2024/01/19 01:40:12;;;;;;;17.05;8.63;;;2.80;71.70;;;-2.60;100.00;95067.63;4964373;28;20026;-52
2024/01/19 01:42:38;;;;;;;19.40;8.95;;;2.80;71.70;;;-2.68;100.00;95063.41;4952741;28;20021;-53
2024/01/19 01:45:05;;;;;;;18.65;8.48;;;2.80;71.60;;;-2.64;100.00;95074.25;4964610;28;20026;-51
2024/01/19 01:47:32;;;;;;;15.27;8.60;;;2.80;71.60;;;-2.67;100.00;95072.81;4964315;28;20042;-51
2024/01/19 01:49:59;;;;;;;21.02;9.35;;;2.80;71.60;;;-2.63;100.00;95065.44;4953485;28;20042;-52
2024/01/19 01:52:25;;;;;;;19.92;8.60;;;2.70;71.50;;;-2.62;100.00;95080.09;4973477;28;20113;-53
2024/01/19 01:54:54;;;;;;;15.18;8.95;;;2.70;71.60;;;-2.59;100.00;95082.31;4958387;28;20133;-52
2024/01/19 01:57:24;;;;;;;18.30;8.48;;;2.70;72.30;;;-2.62;100.00;95080.09;4966759;28;20046;-53
2024/01/19 01:59:52;;;;;;;16.48;7.90;;;2.70;71.60;;;-2.67;100.00;95078.03;4955880;28;20026;-50
2024/01/19 02:02:19;;;;;;;12.10;6.50;;;2.70;71.60;;;-2.70;100.00;95085.44;4969078;28;20117;-50
2024/01/19 02:04:45;;;;;;;11.55;6.13;;;2.70;71.50;;;-2.70;100.00;95088.06;4944295;28;20508;-55
2024/01/19 02:07:11;;;;;;;12.50;6.60;;;2.70;71.50;;;-2.79;100.00;95082.19;4969055;28;20066;-52
2024/01/19 02:09:37;;;;;;;13.50;6.40;;;2.70;71.50;;;-2.83;100.00;95088.81;4961564;28;20030;-52
2024/01/19 02:12:03;;;;;;;9.68;5.72;;;2.70;71.50;;;-2.85;100.00;95096.84;4962484;28;20050;-55
2024/01/19 02:14:29;;;;;;;10.95;6.55;;;2.60;71.40;;;-2.82;100.00;95091.22;4968392;28;20366;-50
2024/01/19 02:16:55;;;;;;;11.82;6.55;;;2.60;71.40;;;-2.81;100.00;95087.63;4962100;28;20532;-54
2024/01/19 02:19:21;;;;;;;15.88;7.22;;;2.60;72.20;;;-2.83;100.00;95100.03;4967849;28;20033;-53
2024/01/19 02:21:47;;;;;;;12.90;6.55;;;2.60;71.50;;;-2.78;100.00;95098.66;4964934;28;20022;-52
2024/01/19 02:24:15;;;;;;;13.95;6.57;;;2.60;71.50;;;-2.80;100.00;95109.28;4954551;28;20112;-53
2024/01/19 02:26:41;;;;;;;12.38;6.93;;;2.60;71.50;;;-2.82;100.00;95106.88;4967308;28;20026;-52
2024/01/19 02:29:07;;;;;;;12.48;7.50;;;2.60;71.50;;;-2.78;100.00;95109.09;4955934;28;20409;-51
2024/01/19 02:31:33;;;;;;;18.92;8.00;;;2.60;71.50;;;-2.77;100.00;95110.69;4965070;28;20113;-53
2024/01/19 02:33:59;;;;;;;16.70;7.75;;;2.60;71.50;;;-2.75;100.00;95114.72;4961020;28;20121;-54
2024/01/19 02:36:25;;;;;;;13.35;7.63;;;2.60;71.50;;;-2.74;100.00;95113.72;4967176;28;20572;-53
2024/01/19 02:38:51;;;;;;;13.30;7.72;;;2.60;71.50;;;-2.71;100.00;95117.75;4965088;28;20025;-51
2024/01/19 02:41:17;;;;;;;16.13;7.78;;;2.60;71.50;;;-2.73;100.00;95119.72;4961780;28;20042;-53
2024/01/19 02:43:43;;;;;;;15.27;7.25;;;2.60;71.50;;;-2.70;100.00;95121.97;4958179;28;20026;-51
2024/01/19 02:46:21;;;;;;;17.45;8.93;;;2.70;71.50;;;-2.71;100.00;95123.75;4960716;28;20040;-51
2024/01/19 02:48:47;;;;;;;14.32;8.05;;;2.70;71.50;;;-2.71;100.00;95130.78;4968172;28;20044;-54
2024/01/19 02:51:13;;;;;;;14.23;7.55;;;2.70;71.50;;;-2.71;100.00;95131.59;4967737;28;20109;-51
2024/01/19 02:53:39;;;;;;;18.65;8.30;;;2.70;71.50;;;-2.72;100.00;95137.81;4961325;28;20058;-51
2024/01/19 02:56:05;;;;;;;18.85;7.25;;;2.70;71.40;;;-2.71;100.00;95143.81;4970308;28;20165;-50
2024/01/19 02:58:31;;;;;;;18.13;7.65;;;2.70;71.30;;;-2.74;100.00;95144.22;4960081;28;20117;-51
2024/01/19 03:00:59;;;;;;;17.92;8.63;;;2.70;71.20;;;-2.78;100.00;95145.59;4965365;28;20420;-52
2024/01/19 03:03:25;;;;;;;16.73;8.02;;;2.70;71.30;;;-2.79;100.00;95147.38;4963576;28;20037;-52
2024/01/19 03:05:51;;;;;;;15.75;8.38;;;2.70;71.20;;;-2.81;100.00;95159.81;4967337;28;20034;-50
2024/01/19 03:08:17;;;;;;;18.00;9.68;;;2.70;71.10;;;-2.81;100.00;95150.19;4964655;28;20033;-51
2024/01/19 03:10:43;;;;;;;16.77;8.73;;;2.70;71.10;;;-2.83;100.00;95153.97;4963359;28;20018;-51
2024/01/19 03:13:08;;;;;;;18.45;8.82;;;2.70;71.00;;;-2.84;100.00;95161.00;4962256;28;20065;-50
2024/01/19 03:15:34;;;;;;;19.08;9.30;;;2.70;71.00;;;-2.82;100.00;95160.78;4963246;28;20073;-50
2024/01/19 03:18:00;;;;;;;17.30;9.50;;;2.70;71.00;;;-2.84;100.00;95168.03;4963302;28;20041;-59
2024/01/19 03:20:26;;;;;;;19.63;9.30;;;2.70;71.00;;;-2.90;100.00;95160.97;4962075;28;20027;-52
2024/01/19 03:22:52;;;;;;;17.63;9.38;;;2.70;70.90;;;-2.92;100.00;95166.34;4962851;28;20031;-56
2024/01/19 03:25:18;;;;;;;16.70;9.07;;;2.70;70.90;;;-2.93;100.00;95167.34;4961591;28;20019;-56
2024/01/19 03:27:43;;;;;;;19.33;9.80;;;2.70;70.90;;;-2.93;100.00;95162.13;4963555;28;20035;-56
2024/01/19 03:30:11;;;;;;;16.90;8.38;;;2.60;70.80;;;-2.94;100.00;95163.16;4956045;28;20030;-55
2024/01/19 03:32:36;;;;;;;18.42;9.63;;;2.60;70.80;;;-2.96;100.00;95157.31;4963781;28;20385;-51
2024/01/19 03:35:03;;;;;;;15.98;8.88;;;2.60;70.90;;;-2.97;100.00;95160.13;4962302;28;20014;-56
2024/01/19 03:37:28;;;;;;;19.08;9.98;;;2.60;70.90;;;-3.00;100.00;95166.50;4960413;28;20026;-56
2024/01/19 03:39:54;;;;;;;18.10;8.73;;;2.60;70.90;;;-3.01;100.00;95162.28;4961097;28;20036;-53
2024/01/19 03:42:20;;;;;;;17.25;9.52;;;2.60;70.80;;;-3.06;100.00;95162.06;4956551;28;20534;-55
2024/01/19 03:44:46;;;;;;;18.55;9.23;;;2.60;70.80;;;-3.07;100.00;95166.47;4962849;28;20022;-52
2024/01/19 03:47:12;;;;;;;21.88;9.80;;;2.60;71.50;;;-3.10;100.00;95168.66;4960525;28;20022;-51
2024/01/19 03:49:39;;;;;;;17.75;9.35;;;2.50;70.70;;;-3.14;100.00;95175.22;4963173;28;20506;-54
2024/01/19 03:52:07;;;;;;;18.23;8.88;;;2.50;70.70;;;-3.14;100.00;95183.84;4950882;28;20022;-54
2024/01/19 03:54:34;;;;;;;18.70;9.82;;;2.50;70.90;;;-3.14;100.00;95185.63;4959782;28;20035;-57
2024/01/19 03:57:06;;;;;;;17.58;8.88;;;2.50;70.70;;;-3.15;100.00;95186.66;4963183;28;20029;-56
2024/01/19 03:59:33;;;;;;;16.95;8.95;;;2.50;70.70;;;-3.16;100.00;95193.66;4951648;28;20038;-51
2024/01/19 04:01:59;;;;;;;14.93;8.25;;;2.50;70.80;;;-3.18;100.00;95198.25;4965966;28;20046;-53
2024/01/19 04:04:26;;;;;;;17.95;9.23;;;2.50;70.80;;;-3.18;100.00;95192.22;4955147;28;20053;-51
2024/01/19 04:06:52;;;;;;;16.08;8.30;;;2.50;70.70;;;-3.20;100.00;95183.78;4966333;28;20034;-51
2024/01/19 04:09:19;;;;;;;15.15;8.07;;;2.50;70.70;;;-3.27;100.00;95192.34;4958770;28;20034;-51
2024/01/19 04:11:46;;;;;;;13.60;7.78;;;2.40;70.60;;;-3.32;100.00;95197.34;4959763;28;20026;-53
2024/01/19 04:14:12;;;;;;;15.80;8.63;;;2.30;70.50;;;-3.32;100.00;95196.50;4965217;28;20038;-53
2024/01/19 04:16:39;;;;;;;18.10;8.70;;;2.30;70.50;;;-3.34;100.00;95198.50;4959858;28;20073;-53
2024/01/19 04:19:07;;;;;;;17.30;8.52;;;2.30;70.50;;;-3.38;100.00;95198.09;4964363;28;20038;-51
2024/01/19 04:21:33;;;;;;;13.98;8.48;;;2.20;70.40;;;-3.42;100.00;95201.22;4960332;28;20072;-53
2024/01/19 04:23:59;;;;;;;18.67;8.85;;;2.20;70.50;;;-3.44;100.00;95208.44;4963833;28;20037;-50
2024/01/19 04:26:27;;;;;;;16.63;9.25;;;2.20;70.50;;;-3.47;100.00;95204.41;4966769;28;20025;-51
2024/01/19 04:28:54;;;;;;;14.98;8.45;;;2.10;70.50;;;-3.50;100.00;95210.78;4966122;28;20053;-50
2024/01/19 04:31:20;;;;;;;18.98;8.35;;;2.10;70.50;;;-3.51;100.00;95208.34;4968610;28;20056;-54
2024/01/19 04:33:46;;;;;;;18.15;9.18;;;2.10;70.60;;;-3.54;100.00;95213.94;4964110;28;20084;-53
2024/01/19 04:36:12;;;;;;;17.23;8.40;;;2.10;70.50;;;-3.57;100.00;95219.53;4971726;28;20481;-50
2024/01/19 04:38:38;;;;;;;21.20;9.43;;;2.10;70.40;;;-3.65;100.00;95220.47;4957906;28;20113;-50
2024/01/19 04:41:05;;;;;;;20.83;9.60;;;2.00;70.40;;;-3.68;100.00;95223.44;4966012;28;20114;-51
2024/01/19 04:43:31;;;;;;;24.13;10.10;;;2.00;70.50;;;-3.71;100.00;95231.59;4969012;28;20030;-52
2024/01/19 04:45:57;;;;;;;18.27;9.50;;;1.90;70.40;;;-3.69;100.00;95239.25;4964984;28;20022;-56
2024/01/19 04:48:23;;;;;;;18.90;9.85;;;1.90;70.40;;;-3.70;100.00;95245.44;4966191;28;20046;-52
2024/01/19 04:50:49;;;;;;;20.92;9.43;;;2.00;70.60;;;-3.72;100.00;95249.03;4964294;28;20023;-54
2024/01/19 04:53:15;;;;;;;17.40;8.65;;;1.90;70.60;;;-3.75;100.00;95246.00;4965751;28;20026;-50
2024/01/19 04:55:40;;;;;;;19.13;9.10;;;1.90;70.60;;;-3.77;100.00;95246.16;4962647;28;20022;-50
2024/01/19 04:58:06;;;;;;;21.42;9.73;;;1.90;70.60;;;-3.76;100.00;95249.56;4965704;28;20034;-50
2024/01/19 05:00:32;;;;;;;18.13;9.15;;;1.90;70.60;;;-3.74;100.00;95255.41;4962790;28;20109;-50
2024/01/19 05:03:00;;;;;;;25.08;10.98;;;1.90;70.70;;;-3.71;100.00;95257.63;4965211;28;20106;-50
2024/01/19 05:05:26;;;;;;;25.77;10.35;;;1.90;70.80;;;-3.73;100.00;95255.22;4963810;28;20381;-50
2024/01/19 05:07:52;;;;;;;23.58;9.77;;;1.90;70.80;;;-3.73;100.00;95259.59;4965797;28;20031;-50
2024/01/19 05:10:18;;;;;;;14.63;9.05;;;1.90;70.80;;;-3.73;100.00;95254.41;4964706;28;20023;-52
2024/01/19 05:12:44;;;;;;;22.10;9.43;;;1.90;70.80;;;-3.77;100.00;95261.78;4969274;28;20029;-50
2024/01/19 05:15:10;;;;;;;16.88;8.43;;;1.90;70.80;;;-3.78;100.00;95272.38;4949057;28;20030;-50
2024/01/19 05:17:36;;;;;;;16.80;9.02;;;1.80;70.70;;;-3.79;100.00;95275.97;4962214;28;20038;-50
2024/01/19 05:20:02;;;;;;;16.67;8.10;;;1.80;70.70;;;-3.80;100.00;95282.16;4960896;28;20015;-51
2024/01/19 05:22:28;;;;;;;19.13;8.57;;;1.90;70.80;;;-3.82;100.00;95284.16;4964433;28;20389;-53
2024/01/19 05:24:54;;;;;;;15.15;8.00;;;1.80;70.70;;;-3.84;100.00;95280.94;4965668;28;20030;-54
2024/01/19 05:27:19;;;;;;;15.60;7.30;;;1.80;70.70;;;-3.84;100.00;95292.13;4964333;28;20022;-51
2024/01/19 05:29:45;;;;;;;15.32;7.43;;;1.80;70.70;;;-3.88;100.00;95296.09;4962752;28;20053;-59
2024/01/19 05:32:11;;;;;;;11.52;6.72;;;1.70;70.70;;;-3.92;100.00;95300.03;4965440;28;20034;-52
2024/01/19 05:34:37;;;;;;;13.40;6.93;;;1.70;70.60;;;-3.96;100.00;95298.78;4962932;28;20045;-50
2024/01/19 05:37:03;;;;;;;11.60;6.00;;;1.70;70.50;;;-4.08;100.00;95300.22;4967770;28;20025;-52
2024/01/19 05:39:29;;;;;;;13.15;6.53;;;1.60;70.30;;;-4.19;100.00;95307.50;4960232;28;20023;-52
2024/01/19 05:41:55;;;;;;;12.68;6.18;;;1.60;70.30;;;-4.25;100.00;95308.22;4961669;28;20057;-51
2024/01/19 05:44:21;;;;;;;11.45;6.30;;;1.50;70.10;;;-4.33;100.00;95320.50;4966977;28;20061;-53
2024/01/19 05:46:47;;;;;;;13.93;6.45;;;1.40;70.00;;;-4.45;100.00;95322.72;4964694;28;20030;-51
2024/01/19 05:49:12;;;;;;;10.93;5.95;;;1.30;69.90;;;-4.52;100.00;95333.03;4966837;28;20058;-57
2024/01/19 05:51:38;;;;;;;15.93;6.70;;;1.20;69.70;;;-4.63;100.00;95333.47;4966092;28;20027;-59
2024/01/19 05:54:04;;;;;;;16.70;6.25;;;1.20;70.40;;;-4.70;100.00;95342.94;4965768;28;20045;-57
2024/01/19 05:56:30;;;;;;;14.95;6.20;;;1.10;69.70;;;-4.82;100.00;95349.56;4966166;28;20784;-60
2024/01/19 05:58:56;;;;;;;13.07;5.93;;;1.00;69.60;;;-4.92;100.00;95366.19;4963617;28;20030;-60
2024/01/19 06:01:21;;;;;;;11.88;5.82;;;0.90;69.60;;;-5.01;100.00;95363.84;4964794;28;20497;-59
2024/01/19 06:03:47;;;;;;;11.57;5.85;;;0.80;69.60;;;-5.06;100.00;95361.75;4957033;28;20042;-57
2024/01/19 06:06:14;;;;;;;12.00;6.05;;;0.80;69.60;;;-5.14;100.00;95364.38;4967600;28;20022;-57
2024/01/19 06:08:39;;;;;;;13.23;5.50;;;0.70;69.50;;;-5.23;100.00;95363.66;4965411;28;20089;-57
2024/01/19 06:11:05;;;;;;;13.32;6.65;;;0.60;69.50;;;-5.28;100.00;95367.72;4965962;28;20034;-57
2024/01/19 06:13:31;;;;;;;13.98;6.35;;;0.50;69.40;;;-5.39;100.00;95369.75;4949713;28;20033;-57
2024/01/19 06:15:57;;;;;;;16.63;5.18;;;0.40;69.40;;;-5.45;100.00;95378.22;4962274;28;20014;-60
2024/01/19 06:18:23;;;;;;;13.95;6.03;;;0.40;69.40;;;-5.51;100.00;95372.91;4961787;28;20321;-59
2024/01/19 06:20:49;;;;;;;18.48;6.30;;;0.30;69.40;;;-5.54;100.00;95376.63;4959983;28;20030;-60
2024/01/19 06:23:15;;;;;;;11.43;5.47;;;0.20;69.50;;;-5.59;100.00;95381.50;4961775;28;20027;-58
2024/01/19 06:25:41;;;;;;;13.88;6.22;;;0.10;69.60;;;-5.66;100.00;95393.56;4953060;28;20200;-59
2024/01/19 06:28:07;;;;;;;14.10;6.35;;;0.10;69.70;;;-5.76;100.00;95393.75;4964165;28;20092;-58
2024/01/19 06:30:34;;;;;;;13.93;5.47;;;0.00;69.80;;;-5.79;100.00;95401.06;4954678;28;20027;-59
2024/01/19 06:33:00;;;;;;;7.95;4.90;;;-0.10;69.90;;;-5.94;100.00;95409.56;4964044;28;20037;-60
2024/01/19 06:35:26;;;;;;;18.38;6.35;;;-0.20;69.80;;;-6.10;100.00;95409.63;4965215;28;20041;-58
2024/01/19 06:37:51;;;;;;;21.20;9.07;;;-0.30;69.50;;;-6.20;100.00;95414.19;4958683;28;20039;-58
2024/01/19 06:40:18;;;;;;;14.90;7.85;;;-0.40;69.30;;;-6.40;100.00;95408.50;4963321;28;20127;-56
2024/01/19 06:42:47;;;;;;;13.55;6.60;;;-0.50;69.10;;;-6.57;100.00;95412.91;4963781;28;20041;-57
2024/01/19 06:45:16;;;;;;;12.65;5.32;;;-0.60;68.90;;;-6.71;100.00;95416.13;4963579;28;20034;-56
2024/01/19 06:47:42;;;;;;;24.88;5.72;;;-0.80;68.80;;;-6.81;100.00;95418.88;4959657;28;20035;-57
2024/01/19 06:50:10;;;;;;;18.35;6.43;;;-0.90;68.70;;;-6.93;100.00;95415.00;4965469;28;20022;-58
2024/01/19 06:52:35;;;;;;;15.73;6.38;;;-1.00;68.70;;;-7.08;100.00;95420.81;4951870;28;20030;-58
2024/01/19 06:55:01;;;;;;;16.40;6.45;;;-1.10;68.90;;;-7.12;100.00;95426.47;4969247;28;20397;-57
2024/01/19 06:57:27;;;;;;;11.35;5.43;;;-1.20;69.10;;;-7.12;100.00;95436.81;4966691;28;20030;-58
2024/01/19 06:59:53;;;;;;;12.45;5.70;;;-1.30;69.50;;;-7.07;100.00;95443.16;4962012;28;20031;-58
2024/01/19 07:02:19;;;;;;;12.90;5.72;;;-1.30;69.70;;;-6.96;100.00;95438.63;4976678;28;20025;-53
2024/01/19 07:04:45;;;;;;;13.70;6.20;;;-1.30;70.00;;;-6.95;100.00;95448.03;4964970;28;20038;-56
2024/01/19 07:07:10;;;;;;;9.40;5.20;;;-1.40;70.00;;;-7.15;100.00;95450.06;4972561;28;20026;-54
2024/01/19 07:09:36;;;;;;;9.10;4.80;;;-1.40;70.00;;;-7.33;100.00;95457.94;4961357;28;20034;-54
2024/01/19 07:12:04;;;;;;;17.42;5.60;;;-1.40;69.80;;;-7.48;100.00;95462.94;4960455;28;20026;-58
2024/01/19 07:14:30;;;;;;;14.20;5.40;;;-1.40;69.70;;;-7.56;100.00;95468.88;4968152;28;20038;-53
2024/01/19 07:16:56;;;;;;;13.10;5.40;;;-1.50;69.50;;;-7.66;100.00;95468.19;4970093;28;20111;-54
2024/01/19 07:19:22;;;;;;;13.32;5.95;;;-1.60;69.40;;;-7.71;100.00;95478.16;4958278;28;20058;-55
2024/01/19 07:21:48;;;;;;;16.17;5.53;;;-1.70;69.30;;;-7.72;100.00;95482.53;4961407;28;20079;-53
2024/01/19 07:24:14;;;;;;;19.67;6.05;;;-1.70;69.40;;;-7.68;100.00;95490.78;4960917;28;20022;-52
2024/01/19 07:26:41;;;;;;;16.30;6.07;;;-1.70;69.60;;;-7.55;100.00;95498.97;4964457;28;20026;-52
2024/01/19 07:29:09;;;;;;;12.70;6.38;;;-1.70;69.90;;;-7.40;100.00;95503.53;4960699;28;20128;-52
2024/01/19 07:31:37;;;;;;;16.20;6.22;;;-1.60;70.20;;;-7.34;100.00;95511.50;4964596;28;20405;-52
2024/01/19 07:34:04;;;;;;;19.85;7.10;;;-1.60;70.40;;;-7.23;100.00;95524.16;4959671;28;20033;-53
2024/01/19 07:36:31;;;;;;;18.08;6.60;;;-1.50;70.60;;;-7.10;100.00;95520.34;4971199;28;20057;-54
2024/01/19 07:38:56;;;;;;;12.60;6.45;;;-1.40;70.70;;;-6.94;100.00;95524.75;4961600;28;20030;-53
2024/01/19 07:41:22;;;;;;;15.02;7.00;;;-1.20;70.90;;;-6.76;100.00;95534.03;4960443;28;20501;-52
2024/01/19 07:43:48;;;;;;;20.55;6.80;;;-1.00;70.90;;;-6.53;100.00;95536.81;4964359;28;20101;-54
2024/01/19 07:46:14;;;;;;;15.45;6.43;;;-0.80;71.20;;;-6.30;100.00;95552.56;4959277;28;20029;-54
2024/01/19 07:48:43;;;;;;;14.60;6.05;;;-0.50;71.30;;;-6.06;100.00;95558.72;4964685;28;20635;-54
2024/01/19 07:51:09;;;;;;;15.45;7.15;;;-0.30;71.30;;;-5.80;100.00;95571.50;4957847;28;20030;-53
2024/01/19 07:53:35;;;;;;;11.82;5.97;;;0.00;71.30;;;-5.53;100.00;95557.34;4961677;28;20141;-56
2024/01/19 07:56:01;;;;;;;17.67;6.32;;;0.30;71.30;;;-5.23;100.00;95571.41;4965299;28;20034;-53
2024/01/19 07:58:27;;;;;;;14.10;5.78;;;0.60;71.30;;;-4.94;100.00;95576.00;4959257;28;20173;-53
2024/01/19 08:00:53;;;;;;;16.77;6.35;;;0.90;71.30;;;-4.71;100.00;95581.25;4967236;28;20076;-52
2024/01/19 08:03:21;;;;;;;10.80;5.45;;;1.20;71.10;;;-4.47;100.00;95577.75;4965650;28;20046;-53
2024/01/19 08:05:47;;;;;;;13.00;5.43;;;1.60;71.00;;;-4.21;100.00;95581.81;4954643;28;20041;-52
2024/01/19 08:08:13;;;;;;;13.68;6.63;;;1.90;70.70;;;-4.01;100.00;95587.34;4965164;28;20071;-54
2024/01/19 08:10:39;;;;;;;9.23;5.18;;;2.30;70.50;;;-3.78;100.00;95588.16;4964216;28;20106;-54
2024/01/19 08:13:05;;;;;;;8.57;5.00;;;2.60;70.20;;;-3.67;100.00;95592.13;4965485;28;20109;-57
2024/01/19 08:15:30;;;;;;;11.80;5.32;;;2.90;69.70;;;-3.56;100.00;95591.72;4966590;28;20027;-54
2024/01/19 08:17:56;;;;;;;7.20;4.80;;;3.20;69.30;;;-3.36;100.00;95602.44;4967138;28;20081;-52
2024/01/19 08:20:24;;;;;;;9.95;4.65;;;3.40;68.80;;;-3.13;100.00;95607.59;4962207;28;20477;-54
2024/01/19 08:22:53;;;;;;;8.85;4.63;;;3.70;68.60;;;-2.90;100.00;95612.72;4968959;28;20434;-52
2024/01/19 08:25:19;;;;;;;5.72;3.80;;;3.90;68.30;;;-2.71;100.00;95611.38;4958602;28;20027;-54
2024/01/19 08:27:46;;;;;;;7.03;4.22;;;4.10;67.90;;;-2.73;100.00;95621.16;4964091;28;20045;-54
2024/01/19 08:30:12;;;;;;;8.70;4.13;;;4.40;67.60;;;-2.63;100.00;95620.91;4968813;28;20065;-55
2024/01/19 08:32:38;;;;;;;7.53;4.55;;;4.60;67.20;;;-2.40;100.00;95632.03;4965612;28;20118;-54
2024/01/19 08:35:11;;;;;;;8.95;4.15;;;4.80;67.00;;;-2.20;100.00;95629.63;4966170;28;20112;-52
2024/01/19 08:37:38;;;;;;;;;;;5.10;66.60;;;-1.98;100.00;95624.44;4968091;28;20084;-55
2024/01/19 08:40:08;;;;;;;7.07;4.00;;;5.40;66.40;;;-1.77;99.96;95632.31;4966597;28;19941;-52
2024/01/19 08:42:36;;;;;;;8.55;3.72;;;5.70;66.00;;;-1.50;99.73;95638.59;4964707;28;20057;-58
2024/01/19 08:45:02;;;;;;;8.10;3.55;;;6.00;65.50;;;-1.25;98.04;95639.00;4967043;28;20022;-59
2024/01/19 08:47:28;;;;;;;5.90;3.47;;;6.30;65.00;;;-1.04;96.60;95645.97;4962188;28;20077;-53
2024/01/19 08:49:55;;;;;;;9.18;3.42;;;6.60;64.60;;;-0.91;95.68;95644.44;4969299;28;20058;-53
2024/01/19 08:52:21;;;;;;;5.40;3.33;;;6.80;64.30;;;-0.74;93.13;95657.03;4963357;28;20056;-57
2024/01/19 08:54:47;;;;;;;4.85;3.42;;;7.10;63.90;;;-0.49;92.69;95653.97;4967157;28;20109;-56
2024/01/19 08:57:14;;;;;;;5.10;3.58;;;7.40;63.50;;;-0.28;92.01;95655.69;4948343;28;20517;-56
2024/01/19 08:59:40;;;;;;;7.03;3.25;;;7.60;63.20;;;-0.10;89.48;95658.56;4962851;28;20489;-53
2024/01/19 09:02:07;;;;;;;4.68;2.88;;;7.80;62.80;;;0.02;84.73;95658.00;4968611;28;20034;-57
2024/01/19 09:04:36;;;;;;;4.65;3.55;;;8.00;62.10;;;0.07;82.06;95658.25;4957063;28;20031;-55
2024/01/19 09:07:02;;;;;;;3.65;2.80;;;8.20;61.30;;;0.30;82.97;95660.50;4971494;28;20029;-57
2024/01/19 09:09:28;;;;;;;4.38;2.80;;;8.40;60.90;;;0.43;79.92;95663.16;4963442;28;20065;-54
2024/01/19 09:11:55;;;;;;;6.70;2.80;;;8.70;60.50;;;0.65;79.04;95661.97;4963804;28;20054;-56
2024/01/19 09:14:22;;;;;;;5.97;2.65;;;9.00;60.00;;;0.81;76.91;95673.88;4967117;28;20029;-53
2024/01/19 09:16:48;;;;;;;4.78;2.88;;;9.20;59.50;;;0.87;74.69;95672.28;4963038;28;20106;-54
2024/01/19 09:19:14;;;;;;;7.13;2.90;;;9.30;59.00;;;0.98;74.21;95679.56;4964100;28;20029;-53
2024/01/19 09:21:44;;;;;;;9.52;3.08;;;9.40;58.50;;;1.03;73.08;95681.56;4967473;28;20022;-55
2024/01/19 09:24:11;;;;;;;3.72;2.63;;;9.50;58.10;;;0.93;71.74;95685.38;4966961;28;20049;-55
2024/01/19 09:26:38;;;;;;;4.82;2.58;;;9.50;57.80;;;1.15;71.97;95687.81;4964849;28;20390;-53
2024/01/19 09:29:04;;;;;;;3.70;2.35;;;9.60;57.60;;;1.25;70.36;95695.28;4964317;28;20036;-53
2024/01/19 09:31:30;;;;;;;3.17;2.00;;;9.70;57.30;;;1.31;69.76;95700.50;4965807;28;20476;-52
2024/01/19 09:33:56;;;;;;;5.05;2.40;;;9.80;57.20;;;1.49;69.82;95702.50;4969413;28;20117;-55
2024/01/19 09:36:22;;;;;;;2.50;2.05;;;10.00;56.90;;;1.55;69.72;95709.56;4971168;28;20106;-57
2024/01/19 09:38:48;;;;;;;5.47;2.75;;;10.10;56.60;;;1.73;68.80;95727.31;4969010;28;20034;-55
2024/01/19 09:41:39;;;;;;;4.85;2.50;;;10.20;56.30;;;1.82;67.32;95730.53;4969192;28;20457;-56
2024/01/19 09:44:20;;;;;;;5.40;2.40;;;10.40;55.80;;;1.87;66.68;95735.97;4968318;28;20041;-52
2024/01/19 09:46:52;;;;;;;2.95;2.20;;;10.60;55.50;;;1.87;66.68;95733.34;4970375;28;20022;-54
2024/01/19 09:50:04;;;;;;;3.80;2.65;;;10.70;55.20;;;2.03;64.74;95734.72;4957393;28;20387;-54
2024/01/19 09:52:58;;;;;;;3.38;2.45;;;10.90;55.00;;;2.22;64.49;95735.66;4951309;28;20394;-52
2024/01/19 09:55:29;;;;;;;4.63;2.25;;;11.30;54.60;;;2.32;62.58;95738.66;4956144;28;20061;-52
2024/01/19 09:57:56;;;;;;;4.95;2.40;;;11.70;53.90;;;2.22;63.02;95743.53;4958346;28;20401;-52
2024/01/19 10:00:23;;;;;;;5.43;2.40;;;11.90;53.10;;;2.19;61.49;95747.38;4956000;28;20033;-53
2024/01/19 10:02:52;;;;;;;2.88;2.50;;;12.10;52.30;;;2.48;60.95;95753.97;4944085;28;20019;-53
2024/01/19 10:05:21;;;;;;;2.97;2.20;;;12.70;51.60;;;3.20;60.56;95759.81;4947696;28;20045;-53
2024/01/19 10:07:55;;;;;;;3.03;2.33;;;13.90;51.10;;;3.48;57.51;95769.13;4949460;28;20027;-53
2024/01/19 10:10:21;;;;;;;3.38;2.00;;;14.50;49.70;;;3.32;55.62;95765.22;4962577;28;20457;-55
2024/01/19 10:12:47;;;;;;;2.67;2.10;;;14.60;48.70;;;3.10;55.12;95766.56;4955210;28;20035;-57